Time;durP1;ratioP1;P1;durP2;ratioP2;P2;SDS_P1;SDS_P2;PMS_P1;PMS_P2;Temp;Humidity;BMP_temperature;BMP_pressure;BME280_temperature;BME280_humidity;BME280_pressure;Samples;Min_cycle;Max_cycle;Signal;HPM_P1;HPM_P2
2024/03/22 00:00:03;;;;;;;;;;;19.60;40.20;;;;;;8354326;28;20537;-51
2024/03/22 00:04:03;;;;;;;;;;;19.70;40.20;;;;;;8354275;28;19935;-53
2024/03/22 00:08:04;;;;;;;;;;;19.70;40.10;;;;;;8354345;28;20319;-55
2024/03/22 00:12:05;;;;;;;;;;;19.70;40.10;;;;;;8356679;27;19920;-54
2024/03/22 00:16:06;;;;;;;;;;;19.50;41.20;;;;;;8359542;28;19964;-52
2024/03/22 00:20:07;;;;;;;;;;;19.40;42.00;;;;;;8359753;28;19924;-54
2024/03/22 00:24:07;;;;;;;;;;;19.40;41.60;;;;;;8359576;28;19913;-53
2024/03/22 00:28:08;;;;;;;;;;;19.50;41.20;;;;;;8359439;28;19913;-53
2024/03/22 00:32:09;;;;;;;;;;;19.50;40.90;;;;;;8359598;28;19913;-55
2024/03/22 00:36:09;;;;;;;;;;;19.60;40.60;;;;;;8359012;28;20003;-57
2024/03/22 00:40:10;;;;;;;;;;;19.60;40.40;;;;;;8359371;28;20421;-56
2024/03/22 00:44:11;;;;;;;;;;;19.60;40.30;;;;;;8358947;27;20369;-56
2024/03/22 00:48:11;;;;;;;;;;;19.70;40.20;;;;;;8359085;28;20400;-57
2024/03/22 00:52:12;;;;;;;;;;;19.60;40.10;;;;;;8358981;28;19957;-56
2024/03/22 00:56:12;;;;;;;;;;;19.70;40.10;;;;;;8358911;28;19913;-56
2024/03/22 01:00:14;;;;;;;;;;;19.70;40.10;;;;;;8358677;28;19920;-55
2024/03/22 01:04:15;;;;;;;;;;;19.50;41.20;;;;;;8358678;28;19977;-56
2024/03/22 01:08:15;;;;;;;;;;;19.40;41.90;;;;;;8358368;28;19912;-55
2024/03/22 01:12:16;;;;;;;;;;;19.40;41.40;;;;;;8359208;27;19913;-56
2024/03/22 01:16:16;;;;;;;;;;;19.50;41.00;;;;;;8358360;28;19924;-56
2024/03/22 01:20:17;;;;;;;;;;;19.60;40.80;;;;;;8358038;28;19916;-56
2024/03/22 01:24:17;;;;;;;;;;;19.60;40.50;;;;;;8357928;28;19944;-56
2024/03/22 01:28:18;;;;;;;;;;;19.60;40.30;;;;;;8358218;28;19913;-54
2024/03/22 01:32:19;;;;;;;;;;;19.60;40.30;;;;;;8357849;28;19913;-56
2024/03/22 01:36:20;;;;;;;;;;;19.60;40.20;;;;;;8357867;28;19921;-56
2024/03/22 01:40:20;;;;;;;;;;;19.60;40.10;;;;;;8357833;28;19920;-56
2024/03/22 01:44:27;;;;;;;;;;;19.70;40.00;;;;;;8357305;27;19917;-54
2024/03/22 01:48:27;;;;;;;;;;;19.60;40.10;;;;;;8357633;28;19915;-56
2024/03/22 01:52:29;;;;;;;;;;;19.50;41.30;;;;;;8357379;28;19909;-56
2024/03/22 01:56:29;;;;;;;;;;;19.30;41.80;;;;;;8357443;28;19917;-56
2024/03/22 02:00:30;;;;;;;;;;;19.40;41.30;;;;;;8357148;28;19970;-56
2024/03/22 02:04:31;;;;;;;;;;;19.50;41.00;;;;;;8357209;28;19958;-56
2024/03/22 02:08:31;;;;;;;;;;;19.50;40.70;;;;;;8356799;28;20411;-56
2024/03/22 02:12:32;;;;;;;;;;;19.50;40.50;;;;;;8356731;27;19919;-56
2024/03/22 02:16:32;;;;;;;;;;;19.60;40.30;;;;;;8357012;28;19925;-56
2024/03/22 02:20:33;;;;;;;;;;;19.60;40.20;;;;;;8356865;28;19961;-56
2024/03/22 02:24:33;;;;;;;;;;;19.60;40.10;;;;;;8356595;28;19913;-56
2024/03/22 02:28:36;;;;;;;;;;;19.60;39.90;;;;;;8355768;28;20287;-56
2024/03/22 02:32:39;;;;;;;;;;;19.60;39.90;;;;;;8356246;28;19916;-55
2024/03/22 02:36:39;;;;;;;;;;;19.70;40.20;;;;;;8355796;28;19952;-56
2024/03/22 02:40:40;;;;;;;;;;;19.40;41.30;;;;;;8356007;28;19924;-56
2024/03/22 02:44:42;;;;;;;;;;;19.30;41.70;;;;;;8356063;28;19909;-56
2024/03/22 02:48:43;;;;;;;;;;;19.40;41.20;;;;;;8356262;28;20003;-54
2024/03/22 02:52:43;;;;;;;;;;;19.50;40.80;;;;;;8356031;28;19965;-54
2024/03/22 02:56:44;;;;;;;;;;;19.50;41.10;;;;;;8355764;28;20293;-54
2024/03/22 03:00:44;;;;;;;;;;;19.60;40.40;;;;;;8355565;28;19963;-55
2024/03/22 03:04:45;;;;;;;;;;;19.60;40.20;;;;;;8355512;28;20629;-55
2024/03/22 03:08:46;;;;;;;;;;;19.60;40.10;;;;;;8355514;28;19913;-55
2024/03/22 03:12:46;;;;;;;;;;;19.60;40.00;;;;;;8355863;27;19944;-54
2024/03/22 03:16:47;;;;;;;;;;;19.60;39.90;;;;;;8355355;28;20266;-54
2024/03/22 03:20:48;;;;;;;;;;;19.60;39.80;;;;;;8355155;28;20445;-55
2024/03/22 03:24:48;;;;;;;;;;;19.60;40.20;;;;;;8355473;28;19913;-54
2024/03/22 03:28:49;;;;;;;;;;;19.40;41.30;;;;;;8355044;28;19936;-55
2024/03/22 03:32:49;;;;;;;;;;;19.30;41.50;;;;;;8354995;28;19917;-55
2024/03/22 03:36:50;;;;;;;;;;;19.40;41.10;;;;;;8355315;28;20286;-55
2024/03/22 03:40:50;;;;;;;;;;;19.50;40.70;;;;;;8354652;28;20015;-55
2024/03/22 03:44:51;;;;;;;;;;;19.50;40.50;;;;;;8354690;27;19919;-55
2024/03/22 03:48:52;;;;;;;;;;;19.60;40.30;;;;;;8358790;28;19909;-55
2024/03/22 03:52:52;;;;;;;;;;;19.60;40.20;;;;;;8360640;28;20328;-55
2024/03/22 03:56:53;;;;;;;;;;;19.60;40.60;;;;;;8360353;28;19948;-55
2024/03/22 04:00:53;;;;;;;;;;;19.60;40.00;;;;;;8360182;28;19917;-55
2024/03/22 04:04:54;;;;;;;;;;;19.60;39.90;;;;;;8360138;28;20438;-57
2024/03/22 04:08:55;;;;;;;;;;;19.60;39.80;;;;;;8359858;28;19913;-56
2024/03/22 04:12:55;;;;;;;;;;;19.60;40.30;;;;;;8361559;27;19952;-56
2024/03/22 04:16:56;;;;;;;;;;;19.40;41.30;;;;;;8342288;28;19928;-56
2024/03/22 04:20:57;;;;;;;;;;;19.30;41.50;;;;;;8359782;28;19924;-56
2024/03/22 04:24:57;;;;;;;;;;;19.40;41.00;;;;;;8359747;28;19913;-56
2024/03/22 04:28:58;;;;;;;;;;;19.40;40.60;;;;;;8359567;28;19996;-55
2024/03/22 04:32:58;;;;;;;;;;;19.50;40.40;;;;;;8359498;28;20379;-56
2024/03/22 04:36:59;;;;;;;;;;;19.60;40.30;;;;;;8359524;28;19913;-55
2024/03/22 04:41:01;;;;;;;;;;;19.60;40.20;;;;;;8359140;28;20267;-56
2024/03/22 04:45:01;;;;;;;;;;;19.60;40.00;;;;;;8359027;27;19909;-57
2024/03/22 04:49:02;;;;;;;;;;;19.60;39.90;;;;;;8359121;28;19967;-56
2024/03/22 04:53:03;;;;;;;;;;;19.60;39.80;;;;;;8358964;28;19913;-56
2024/03/22 04:57:03;;;;;;;;;;;19.60;39.80;;;;;;8358718;28;20004;-56
2024/03/22 05:01:04;;;;;;;;;;;19.50;40.40;;;;;;8358665;28;19973;-55
2024/03/22 05:05:05;;;;;;;;;;;19.30;41.40;;;;;;8358663;28;19909;-55
2024/03/22 05:09:05;;;;;;;;;;;19.30;41.50;;;;;;8358553;28;19913;-56
2024/03/22 05:13:06;;;;;;;;;;;19.30;40.90;;;;;;8358182;27;19928;-55
2024/03/22 05:17:07;;;;;;;;;;;19.50;40.70;;;;;;8358565;28;19913;-55
2024/03/22 05:21:07;;;;;;;;;;;19.50;40.30;;;;;;8358071;28;19962;-55
2024/03/22 05:25:08;;;;;;;;;;;19.60;40.20;;;;;;8358047;28;19913;-53
2024/03/22 05:29:09;;;;;;;;;;;19.60;40.00;;;;;;8358129;28;20305;-56
2024/03/22 05:33:09;;;;;;;;;;;19.70;39.80;;;;;;8357844;28;20430;-54
2024/03/22 05:37:11;;;;;;;;;;;19.70;39.60;;;;;;8358018;28;19918;-57
2024/03/22 05:41:11;;;;;;;;;;;19.70;39.50;;;;;;8357757;28;20289;-56
2024/03/22 05:45:12;;;;;;;;;;;19.80;39.40;;;;;;8357378;27;19973;-56
2024/03/22 05:49:12;;;;;;;;;;;19.70;40.20;;;;;;8357498;28;19962;-55
2024/03/22 05:53:13;;;;;;;;;;;19.50;41.10;;;;;;8357665;28;19921;-56
2024/03/22 05:57:13;;;;;;;;;;;19.50;41.00;;;;;;8357268;28;19909;-57
2024/03/22 06:01:14;;;;;;;;;;;19.60;40.50;;;;;;8357101;28;20422;-55
2024/03/22 06:05:15;;;;;;;;;;;19.70;40.10;;;;;;8357399;28;19909;-57
2024/03/22 06:09:23;;;;;;;;;;;19.70;39.90;;;;;;8355943;28;19924;-56
2024/03/22 06:13:24;;;;;;;;;;;19.70;39.70;;;;;;8356697;27;19921;-56
2024/03/22 06:17:25;;;;;;;;;;;19.80;39.60;;;;;;8356780;28;19921;-56
2024/03/22 06:21:25;;;;;;;;;;;19.80;39.40;;;;;;8357004;28;19917;-55
2024/03/22 06:25:26;;;;;;;;;;;19.80;39.40;;;;;;8356498;28;19913;-55
2024/03/22 06:29:27;;;;;;;;;;;19.80;39.30;;;;;;8356573;28;20290;-55
2024/03/22 06:33:28;;;;;;;;;;;19.80;39.20;;;;;;8356531;28;19974;-55
2024/03/22 06:37:28;;;;;;;;;;;19.70;40.20;;;;;;8356111;28;19913;-54
2024/03/22 06:41:29;;;;;;;;;;;19.50;41.00;;;;;;8356515;28;19944;-55
2024/03/22 06:45:29;;;;;;;;;;;19.50;40.70;;;;;;8355926;28;19924;-55
2024/03/22 06:49:30;;;;;;;;;;;19.60;40.20;;;;;;8356189;28;20373;-54
2024/03/22 06:53:31;;;;;;;;;;;19.70;40.00;;;;;;8338044;28;19909;-55
2024/03/22 06:57:33;;;;;;;;;;;19.70;39.80;;;;;;8355894;28;19917;-55
2024/03/22 07:01:34;;;;;;;;;;;19.70;39.50;;;;;;8355635;28;20011;-55
2024/03/22 07:05:34;;;;;;;;;;;19.80;39.40;;;;;;8355890;28;19913;-55
2024/03/22 07:09:35;;;;;;;;;;;19.80;39.30;;;;;;8355323;28;20288;-54
2024/03/22 07:13:36;;;;;;;;;;;19.80;39.30;;;;;;8355235;27;19921;-55
2024/03/22 07:17:36;;;;;;;;;;;19.80;39.20;;;;;;8355535;28;19913;-55
2024/03/22 07:21:38;;;;;;;;;;;19.80;39.40;;;;;;8359608;28;20362;-55
2024/03/22 07:25:39;;;;;;;;;;;19.60;40.30;;;;;;8366414;28;19966;-55
2024/03/22 07:29:39;;;;;;;;;;;19.50;41.10;;;;;;8366327;28;20366;-54
2024/03/22 07:33:40;;;;;;;;;;;19.50;40.80;;;;;;8366186;27;19913;-56
2024/03/22 07:37:41;;;;;;;;;;;19.60;40.30;;;;;;8366150;28;19913;-56
2024/03/22 07:41:41;;;;;;;;;;;19.60;39.90;;;;;;8365666;28;20374;-56
2024/03/22 07:45:42;;;;;;;;;;;19.70;39.80;;;;;;8365744;28;19948;-56
2024/03/22 07:49:43;;;;;;;;;;;19.70;40.10;;;;;;8365783;27;19913;-55
2024/03/22 07:53:43;;;;;;;;;;;19.80;39.40;;;;;;8365665;28;19916;-57
2024/03/22 07:57:44;;;;;;;;;;;19.80;39.30;;;;;;8365751;27;19913;-54
2024/03/22 08:01:45;;;;;;;;;;;19.80;39.20;;;;;;8365470;28;19924;-56
2024/03/22 08:05:45;;;;;;;;;;;19.80;39.10;;;;;;8365413;28;20303;-55
2024/03/22 08:09:46;;;;;;;;;;;19.80;39.10;;;;;;8366068;27;19965;-56
2024/03/22 08:13:46;;;;;;;;;;;19.70;40.30;;;;;;8365058;27;19932;-55
2024/03/22 08:17:47;;;;;;;;;;;19.50;41.10;;;;;;8365161;27;20307;-56
2024/03/22 08:21:47;;;;;;;;;;;19.50;40.70;;;;;;8365116;27;19917;-56
2024/03/22 08:25:48;;;;;;;;;;;19.60;40.30;;;;;;8364820;27;19977;-55
2024/03/22 08:29:49;;;;;;;;;;;19.60;39.90;;;;;;8364713;28;19913;-56
2024/03/22 08:33:49;;;;;;;;;;;19.70;39.70;;;;;;8361192;28;19919;-54
2024/03/22 08:37:50;;;;;;;;;;;19.80;39.60;;;;;;8359255;28;20381;-55
2024/03/22 08:41:51;;;;;;;;;;;19.80;39.30;;;;;;8359350;27;19917;-53
2024/03/22 08:45:52;;;;;;;;;;;19.80;39.30;;;;;;8359267;28;19913;-52
2024/03/22 08:49:52;;;;;;;;;;;19.80;39.20;;;;;;8358930;28;19909;-53
2024/03/22 08:53:54;;;;;;;;;;;19.80;39.10;;;;;;8359092;28;19913;-53
2024/03/22 08:57:55;;;;;;;;;;;19.80;39.10;;;;;;8358890;28;19951;-52
2024/03/22 09:01:55;;;;;;;;;;;19.60;40.50;;;;;;8358658;28;19921;-53
2024/03/22 09:05:56;;;;;;;;;;;19.50;41.20;;;;;;8358761;28;20282;-53
2024/03/22 09:09:56;;;;;;;;;;;19.50;40.70;;;;;;8358610;28;19948;-54
2024/03/22 09:13:57;;;;;;;;;;;19.60;40.20;;;;;;8358324;28;20286;-54
2024/03/22 09:17:58;;;;;;;;;;;19.70;39.90;;;;;;8358762;28;19985;-54
2024/03/22 09:21:58;;;;;;;;;;;19.70;39.80;;;;;;8358541;28;19923;-52
2024/03/22 09:25:59;;;;;;;;;;;19.80;39.60;;;;;;8358202;28;20377;-54
2024/03/22 09:30:01;;;;;;;;;;;19.70;39.50;;;;;;8359212;28;19913;-52
2024/03/22 09:34:01;;;;;;;;;;;19.80;39.40;;;;;;8357936;28;19913;-52
2024/03/22 09:38:02;;;;;;;;;;;19.80;39.30;;;;;;8357994;28;20092;-53
2024/03/22 09:42:05;;;;;;;;;;;19.80;39.30;;;;;;8357953;27;19917;-54
2024/03/22 09:46:07;;;;;;;;;;;19.80;39.30;;;;;;8356604;28;19908;-54
2024/03/22 09:50:08;;;;;;;;;;;19.60;40.70;;;;;;8339809;28;19961;-55
2024/03/22 09:54:09;;;;;;;;;;;19.50;41.30;;;;;;8357544;28;19913;-53
2024/03/22 09:58:10;;;;;;;;;;;19.50;40.70;;;;;;8357325;28;20365;-53
2024/03/22 10:02:12;;;;;;;;;;;19.60;40.30;;;;;;8357512;28;20383;-54
2024/03/22 10:06:13;;;;;;;;;;;19.70;39.90;;;;;;8339213;28;19913;-53
2024/03/22 10:10:15;;;;;;;;;;;19.70;39.70;;;;;;8356864;28;20003;-54
2024/03/22 10:14:16;;;;;;;;;;;19.70;39.60;;;;;;8356825;27;19925;-54
2024/03/22 10:18:16;;;;;;;;;;;19.70;39.50;;;;;;8356690;28;19960;-53
2024/03/22 10:22:17;;;;;;;;;;;19.70;39.40;;;;;;8356655;28;19912;-52
2024/03/22 10:26:18;;;;;;;;;;;19.80;39.30;;;;;;8357137;28;19913;-53
2024/03/22 10:30:18;;;;;;;;;;;19.80;39.30;;;;;;8356517;28;20004;-54
2024/03/22 10:34:20;;;;;;;;;;;19.80;39.50;;;;;;8356215;28;19971;-53
2024/03/22 10:38:21;;;;;;;;;;;19.60;40.70;;;;;;8356168;28;19913;-53
2024/03/22 10:42:22;;;;;;;;;;;19.50;41.20;;;;;;8356031;27;19915;-52
2024/03/22 10:46:27;;;;;;;;;;;19.50;40.60;;;;;;8355925;28;19913;-53
2024/03/22 10:50:29;;;;;;;;;;;19.60;40.20;;;;;;8355834;28;19908;-55
2024/03/22 10:54:33;;;;;;;;;;;19.70;39.90;;;;;;8355926;28;19920;-54
2024/03/22 10:58:34;;;;;;;;;;;19.70;39.70;;;;;;8355042;28;19917;-53
2024/03/22 11:02:34;;;;;;;;;;;19.70;39.60;;;;;;8337897;28;19920;-55
2024/03/22 11:06:36;;;;;;;;;;;19.70;39.40;;;;;;8355823;28;19913;-55
2024/03/22 11:10:37;;;;;;;;;;;19.70;39.30;;;;;;8355335;28;19908;-55
2024/03/22 11:14:37;;;;;;;;;;;19.80;39.30;;;;;;8355039;27;19925;-55
2024/03/22 11:18:38;;;;;;;;;;;19.80;39.10;;;;;;8355765;28;19924;-54
2024/03/22 11:22:39;;;;;;;;;;;19.80;39.40;;;;;;8355163;28;19916;-55
2024/03/22 11:26:39;;;;;;;;;;;19.60;40.80;;;;;;8355408;28;20263;-54
2024/03/22 11:30:40;;;;;;;;;;;19.40;41.00;;;;;;8354801;28;19924;-55
2024/03/22 11:34:41;;;;;;;;;;;19.50;40.50;;;;;;8355025;28;19917;-55
2024/03/22 11:38:41;;;;;;;;;;;19.60;40.10;;;;;;8355254;28;19913;-54
2024/03/22 11:42:44;;;;;;;;;;;19.70;39.90;;;;;;8354520;28;19920;-54
2024/03/22 11:46:45;;;;;;;;;;;19.70;39.80;;;;;;8354789;28;19908;-54
2024/03/22 11:50:46;;;;;;;;;;;19.70;39.60;;;;;;8354793;28;19909;-55
2024/03/22 11:54:51;;;;;;;;;;;19.70;39.50;;;;;;8354318;28;20377;-54
2024/03/22 11:58:57;;;;;;;;;;;19.80;39.40;;;;;;8354411;28;19944;-55
2024/03/22 12:02:58;;;;;;;;;;;19.70;39.40;;;;;;8354454;28;20050;-55
2024/03/22 12:07:00;;;;;;;;;;;19.70;39.20;;;;;;8354451;28;20355;-54
2024/03/22 12:11:00;;;;;;;;;;;19.70;39.80;;;;;;8359666;28;20426;-56
2024/03/22 12:15:01;;;;;;;;;;;19.50;40.80;;;;;;8359817;27;20351;-56
2024/03/22 12:19:01;;;;;;;;;;;19.50;40.90;;;;;;8359844;27;20366;-56
2024/03/22 12:23:02;;;;;;;;;;;19.50;40.40;;;;;;8359712;28;19920;-56
2024/03/22 12:27:03;;;;;;;;;;;19.70;40.10;;;;;;8359702;28;19913;-57
2024/03/22 12:31:04;;;;;;;;;;;19.60;39.80;;;;;;8359457;28;19992;-55
2024/03/22 12:35:05;;;;;;;;;;;19.70;39.70;;;;;;8359607;28;20378;-57
2024/03/22 12:39:06;;;;;;;;;;;19.70;39.60;;;;;;8359354;28;19913;-56
2024/03/22 12:43:08;;;;;;;;;;;19.70;39.50;;;;;;8359127;27;20093;-56
2024/03/22 12:47:09;;;;;;;;;;;19.70;39.40;;;;;;8359140;28;19908;-55
2024/03/22 12:51:10;;;;;;;;;;;19.70;39.30;;;;;;8359265;28;19909;-57
2024/03/22 12:55:10;;;;;;;;;;;19.70;39.30;;;;;;8358984;28;20378;-55
2024/03/22 12:59:11;;;;;;;;;;;19.70;39.80;;;;;;8358464;28;19920;-56
2024/03/22 13:03:13;;;;;;;;;;;19.50;41.00;;;;;;8358970;28;19913;-56
2024/03/22 13:07:13;;;;;;;;;;;19.40;40.90;;;;;;8358634;28;19913;-56
2024/03/22 13:11:14;;;;;;;;;;;19.50;40.40;;;;;;8340643;28;19959;-56
2024/03/22 13:15:14;;;;;;;;;;;19.60;40.20;;;;;;8358799;27;20000;-56
2024/03/22 13:19:15;;;;;;;;;;;19.60;39.90;;;;;;8358777;28;19917;-55
2024/03/22 13:23:15;;;;;;;;;;;19.70;39.80;;;;;;8358375;28;19919;-57
2024/03/22 13:27:16;;;;;;;;;;;19.70;39.60;;;;;;8340615;28;20362;-54
2024/03/22 13:31:17;;;;;;;;;;;19.70;39.50;;;;;;8358362;28;19960;-56
2024/03/22 13:35:17;;;;;;;;;;;19.70;39.40;;;;;;8358066;28;19936;-56
2024/03/22 13:39:18;;;;;;;;;;;19.70;39.30;;;;;;8358346;28;19920;-56
2024/03/22 13:43:18;;;;;;;;;;;19.70;39.30;;;;;;8357622;27;20275;-56
2024/03/22 13:47:19;;;;;;;;;;;19.70;40.10;;;;;;8357928;28;19913;-54
2024/03/22 13:51:21;;;;;;;;;;;19.50;41.00;;;;;;8357656;28;20285;-54
2024/03/22 13:55:21;;;;;;;;;;;19.50;40.80;;;;;;8357564;28;19924;-56
2024/03/22 13:59:22;;;;;;;;;;;19.50;40.30;;;;;;8357474;27;19917;-56
2024/03/22 14:03:23;;;;;;;;;;;19.60;40.10;;;;;;8357323;28;19917;-56
2024/03/22 14:07:24;;;;;;;;;;;19.70;39.90;;;;;;8357104;28;19917;-56
2024/03/22 14:11:24;;;;;;;;;;;19.70;39.70;;;;;;8357198;27;20573;-56
2024/03/22 14:15:26;;;;;;;;;;;19.70;39.60;;;;;;8356977;28;19936;-56
2024/03/22 14:19:26;;;;;;;;;;;19.70;39.60;;;;;;8356920;28;19920;-56
2024/03/22 14:23:29;;;;;;;;;;;19.70;39.40;;;;;;8356918;28;19913;-56
2024/03/22 14:27:29;;;;;;;;;;;19.70;39.40;;;;;;8356851;28;19928;-56
2024/03/22 14:31:30;;;;;;;;;;;19.70;39.20;;;;;;8355943;28;19912;-55
2024/03/22 14:35:30;;;;;;;;;;;19.60;40.20;;;;;;8356525;28;20381;-53
2024/03/22 14:39:32;;;;;;;;;;;19.50;41.00;;;;;;8356296;28;19920;-53
2024/03/22 14:43:34;;;;;;;;;;;19.50;40.80;;;;;;8356624;27;20008;-52
2024/03/22 14:47:35;;;;;;;;;;;19.50;40.30;;;;;;8356097;28;19916;-53
2024/03/22 14:51:36;;;;;;;;;;;19.60;40.10;;;;;;8356231;28;19963;-53
2024/03/22 14:55:36;;;;;;;;;;;19.60;39.80;;;;;;8356190;28;20359;-54
2024/03/22 14:59:37;;;;;;;;;;;19.60;39.70;;;;;;8355834;28;19920;-53
2024/03/22 15:03:37;;;;;;;;;;;19.70;39.60;;;;;;8355673;28;20281;-54
2024/03/22 15:07:38;;;;;;;;;;;19.70;39.50;;;;;;8355716;28;19999;-53
2024/03/22 15:11:39;;;;;;;;;;;19.70;39.40;;;;;;8355482;28;19956;-54
2024/03/22 15:15:39;;;;;;;;;;;19.70;39.40;;;;;;8355329;28;19925;-54
2024/03/22 15:19:40;;;;;;;;;;;19.70;39.30;;;;;;8355472;28;20411;-53
2024/03/22 15:23:40;;;;;;;;;;;19.60;40.20;;;;;;8355262;28;20003;-53
2024/03/22 15:27:41;;;;;;;;;;;19.50;41.00;;;;;;8355475;28;20388;-52
2024/03/22 15:31:42;;;;;;;;;;;19.40;40.70;;;;;;8355433;28;19920;-54
2024/03/22 15:35:47;;;;;;;;;;;19.50;40.30;;;;;;8355114;28;20262;-53
2024/03/22 15:39:47;;;;;;;;;;;19.60;40.00;;;;;;8355106;28;19960;-53
2024/03/22 15:43:48;;;;;;;;;;;19.60;39.80;;;;;;8358776;28;19917;-55
2024/03/22 15:47:49;;;;;;;;;;;19.70;39.70;;;;;;8360803;28;19973;-55
2024/03/22 15:51:49;;;;;;;;;;;19.70;39.60;;;;;;8361601;28;19916;-55
2024/03/22 15:55:50;;;;;;;;;;;19.70;39.50;;;;;;8360643;28;19912;-55
2024/03/22 15:59:50;;;;;;;;;;;19.70;39.40;;;;;;8360253;28;19952;-54
2024/03/22 16:03:51;;;;;;;;;;;19.70;39.40;;;;;;8360735;28;20353;-54
2024/03/22 16:07:52;;;;;;;;;;;19.70;39.30;;;;;;8342425;28;19913;-55
2024/03/22 16:11:52;;;;;;;;;;;19.60;40.30;;;;;;8360200;28;19912;-54
2024/03/22 16:15:53;;;;;;;;;;;19.50;41.10;;;;;;8360171;28;19948;-55
2024/03/22 16:19:54;;;;;;;;;;;19.40;41.10;;;;;;8360153;28;19965;-55
2024/03/22 16:23:54;;;;;;;;;;;19.40;41.10;;;;;;8359867;28;19920;-55
2024/03/22 16:27:56;;;;;;;;;;;19.40;41.20;;;;;;8359734;28;19913;-55
2024/03/22 16:31:57;;;;;;;;;;;19.40;41.30;;;;;;8359727;28;19913;-55
2024/03/22 16:35:57;;;;;;;;;;;19.40;41.30;;;;;;8359533;28;19916;-54
2024/03/22 16:39:58;;;;;;;;;;;19.40;41.40;;;;;;8359148;28;20028;-55
2024/03/22 16:43:59;;;;;;;;;;;19.40;41.30;;;;;;8324926;28;19962;-55
2024/03/22 16:47:59;;;;;;;;;;;19.40;41.20;;;;;;8326241;28;19936;-55
2024/03/22 16:52:00;;;;;;;;;;;19.40;41.20;;;;;;8326141;28;19921;-55
2024/03/22 16:56:01;;;;;;;;;;;19.50;41.20;;;;;;8325695;28;19916;-54
2024/03/22 17:00:01;;;;;;;;;;;19.40;41.30;;;;;;8325863;28;19925;-55
2024/03/22 17:04:02;;;;;;;;;;;19.40;41.30;;;;;;8308146;28;19917;-57
2024/03/22 17:08:03;;;;;;;;;;;19.40;41.40;;;;;;8325890;28;19948;-56
2024/03/22 17:12:05;;;;;;;;;;;19.40;41.40;;;;;;8314161;27;20019;-54
2024/03/22 17:16:06;;;;;;;;;;;19.40;41.40;;;;;;8358311;28;20298;-57
2024/03/22 17:20:07;;;;;;;;;;;19.40;41.50;;;;;;8358320;28;20452;-56
2024/03/22 17:24:08;;;;;;;;;;;19.40;41.50;;;;;;8358156;28;20269;-56
2024/03/22 17:28:08;;;;;;;;;;;19.40;41.50;;;;;;8358077;28;20124;-56
2024/03/22 17:32:09;;;;;;;;;;;19.40;41.50;;;;;;8358318;28;19956;-56
2024/03/22 17:36:09;;;;;;;;;;;19.40;41.60;;;;;;8357912;28;19913;-55
2024/03/22 17:40:11;;;;;;;;;;;19.40;41.60;;;;;;8357805;28;19919;-56
2024/03/22 17:44:12;;;;;;;;;;;19.40;41.60;;;;;;8357558;27;19916;-56
2024/03/22 17:48:13;;;;;;;;;;;19.40;41.60;;;;;;8357460;28;20056;-56
2024/03/22 17:52:14;;;;;;;;;;;19.40;41.60;;;;;;8357524;28;19912;-56
2024/03/22 17:56:15;;;;;;;;;;;19.40;41.70;;;;;;8357553;28;20389;-56
2024/03/22 18:00:16;;;;;;;;;;;19.40;41.70;;;;;;8356963;28;19925;-55
2024/03/22 18:04:16;;;;;;;;;;;19.40;41.70;;;;;;8357311;28;19965;-54
2024/03/22 18:08:18;;;;;;;;;;;19.40;41.80;;;;;;8355991;28;19913;-53
2024/03/22 18:12:18;;;;;;;;;;;19.30;41.80;;;;;;8356714;27;19909;-54
2024/03/22 18:16:19;;;;;;;;;;;19.30;41.80;;;;;;8357057;28;20001;-55
2024/03/22 18:20:21;;;;;;;;;;;19.30;41.90;;;;;;8356822;28;20435;-52
2024/03/22 18:24:22;;;;;;;;;;;19.40;41.90;;;;;;8356569;28;20382;-54
2024/03/22 18:28:22;;;;;;;;;;;19.30;42.00;;;;;;8356326;28;20281;-54
2024/03/22 18:32:23;;;;;;;;;;;19.30;41.90;;;;;;8356487;28;19942;-55
2024/03/22 18:36:23;;;;;;;;;;;19.30;42.00;;;;;;8338508;28;19913;-54
2024/03/22 18:40:24;;;;;;;;;;;19.30;42.00;;;;;;8356197;28;19912;-53
2024/03/22 18:44:25;;;;;;;;;;;19.30;42.00;;;;;;8355843;27;20370;-54
2024/03/22 18:48:25;;;;;;;;;;;19.30;41.90;;;;;;8355996;28;20362;-54
2024/03/22 18:52:26;;;;;;;;;;;19.30;42.00;;;;;;8356078;28;19909;-53
2024/03/22 18:56:26;;;;;;;;;;;19.30;42.00;;;;;;8355833;28;19913;-52
2024/03/22 19:00:27;;;;;;;;;;;19.30;42.00;;;;;;8355551;28;19953;-53
2024/03/22 19:04:28;;;;;;;;;;;19.30;42.10;;;;;;8355657;28;20366;-53
2024/03/22 19:08:28;;;;;;;;;;;19.30;42.00;;;;;;8355564;28;20515;-55
2024/03/22 19:12:30;;;;;;;;;;;19.30;42.00;;;;;;8355285;27;20441;-55
2024/03/22 19:16:31;;;;;;;;;;;19.30;42.10;;;;;;8355170;28;20394;-55
2024/03/22 19:20:32;;;;;;;;;;;19.30;42.10;;;;;;8355985;28;20346;-54
2024/03/22 19:24:33;;;;;;;;;;;19.30;42.10;;;;;;8355222;28;19949;-54
2024/03/22 19:28:35;;;;;;;;;;;19.30;42.10;;;;;;8355177;28;19916;-55
2024/03/22 19:32:36;;;;;;;;;;;19.30;42.10;;;;;;8355237;28;19921;-55
2024/03/22 19:36:37;;;;;;;;;;;19.30;42.20;;;;;;8355046;28;19917;-55
2024/03/22 19:40:38;;;;;;;;;;;19.30;42.10;;;;;;8354801;28;20344;-55
2024/03/22 19:44:38;;;;;;;;;;;19.30;42.20;;;;;;8354760;27;19916;-54
2024/03/22 19:48:39;;;;;;;;;;;19.30;42.20;;;;;;8354763;28;19909;-55
2024/03/22 19:52:39;;;;;;;;;;;19.30;42.20;;;;;;8354802;28;19952;-55
2024/03/22 19:56:40;;;;;;;;;;;19.30;42.20;;;;;;8354922;28;19995;-53
2024/03/22 20:00:41;;;;;;;;;;;19.30;42.30;;;;;;8354445;28;19924;-54
2024/03/22 20:04:41;;;;;;;;;;;19.30;42.20;;;;;;8354686;28;19924;-55
2024/03/22 20:08:42;;;;;;;;;;;19.30;42.20;;;;;;8354431;28;19963;-55
2024/03/22 20:12:43;;;;;;;;;;;19.30;42.30;;;;;;8354224;27;20270;-55
2024/03/22 20:16:44;;;;;;;;;;;19.30;42.20;;;;;;8354391;28;19944;-55
2024/03/22 20:20:44;;;;;;;;;;;19.30;42.30;;;;;;8336133;28;20016;-55
2024/03/22 20:24:45;;;;;;;;;;;19.30;42.30;;;;;;8354422;28;20425;-54
2024/03/22 20:28:46;;;;;;;;;;;19.30;42.30;;;;;;8337140;28;19913;-55
2024/03/22 20:32:46;;;;;;;;;;;19.30;42.30;;;;;;8359695;28;19913;-54
2024/03/22 20:36:47;;;;;;;;;;;19.30;42.30;;;;;;8359755;28;20049;-55
2024/03/22 20:40:47;;;;;;;;;;;19.30;42.30;;;;;;8359273;28;19913;-55
2024/03/22 20:44:48;;;;;;;;;;;19.30;42.40;;;;;;8359248;27;19992;-54
2024/03/22 20:48:48;;;;;;;;;;;19.30;42.30;;;;;;8359910;28;20007;-54
2024/03/22 20:52:49;;;;;;;;;;;19.30;42.40;;;;;;8359066;28;19916;-54
2024/03/22 20:56:49;;;;;;;;;;;19.30;42.40;;;;;;8359243;28;19913;-54
2024/03/22 21:00:50;;;;;;;;;;;19.30;42.40;;;;;;8358940;28;19963;-55
2024/03/22 21:04:51;;;;;;;;;;;19.30;42.40;;;;;;8358702;28;20557;-55
2024/03/22 21:08:51;;;;;;;;;;;19.30;42.40;;;;;;8359721;28;19948;-54
2024/03/22 21:12:52;;;;;;;;;;;19.30;42.40;;;;;;8360315;27;19912;-55
2024/03/22 21:16:52;;;;;;;;;;;19.30;42.40;;;;;;8358644;28;19913;-55
2024/03/22 21:20:53;;;;;;;;;;;19.30;42.50;;;;;;8358372;28;19917;-54
2024/03/22 21:24:54;;;;;;;;;;;19.30;42.50;;;;;;8358473;28;19964;-55
2024/03/22 21:28:54;;;;;;;;;;;19.30;42.50;;;;;;8358186;28;19953;-55
2024/03/22 21:32:55;;;;;;;;;;;19.30;42.50;;;;;;8358191;28;19909;-52
2024/03/22 21:36:56;;;;;;;;;;;19.30;42.40;;;;;;8358300;28;19909;-53
2024/03/22 21:40:56;;;;;;;;;;;19.30;42.50;;;;;;8357674;28;19919;-53
2024/03/22 21:44:57;;;;;;;;;;;19.30;42.50;;;;;;8357611;27;19916;-54
2024/03/22 21:48:57;;;;;;;;;;;19.30;42.50;;;;;;8357668;28;20503;-52
2024/03/22 21:52:58;;;;;;;;;;;19.30;42.50;;;;;;8357703;28;19916;-54
2024/03/22 21:56:58;;;;;;;;;;;19.30;42.50;;;;;;8357654;28;19955;-53
2024/03/22 22:01:01;;;;;;;;;;;19.30;42.50;;;;;;8357170;28;20423;-54
2024/03/22 22:05:01;;;;;;;;;;;19.30;42.50;;;;;;8357568;28;20003;-53
2024/03/22 22:09:02;;;;;;;;;;;19.30;42.60;;;;;;8357117;28;19913;-54
2024/03/22 22:13:03;;;;;;;;;;;19.30;42.60;;;;;;8356778;27;19917;-53
2024/03/22 22:17:04;;;;;;;;;;;19.30;42.60;;;;;;8357150;28;19952;-53
2024/03/22 22:21:04;;;;;;;;;;;19.30;42.60;;;;;;8356958;28;20362;-53
2024/03/22 22:25:05;;;;;;;;;;;19.30;42.60;;;;;;8356787;28;19965;-54
2024/03/22 22:29:05;;;;;;;;;;;19.30;42.50;;;;;;8357136;28;19913;-54
2024/03/22 22:33:06;;;;;;;;;;;19.30;42.50;;;;;;8357631;28;20350;-53
2024/03/22 22:37:06;;;;;;;;;;;19.30;42.50;;;;;;8356614;28;19909;-54
2024/03/22 22:41:08;;;;;;;;;;;19.30;42.60;;;;;;8356465;28;20346;-54
2024/03/22 22:45:08;;;;;;;;;;;19.30;42.60;;;;;;8358045;27;19961;-53
2024/03/22 22:49:09;;;;;;;;;;;19.30;42.60;;;;;;8356504;28;19908;-52
2024/03/22 22:53:09;;;;;;;;;;;19.30;42.60;;;;;;8355798;28;19913;-55
2024/03/22 22:57:10;;;;;;;;;;;19.30;42.60;;;;;;8355974;28;19949;-53
2024/03/22 23:01:10;;;;;;;;;;;19.30;42.60;;;;;;8356044;28;20000;-54
2024/03/22 23:05:11;;;;;;;;;;;19.30;42.60;;;;;;8355936;28;20385;-53
2024/03/22 23:09:12;;;;;;;;;;;19.30;42.70;;;;;;8355634;28;19920;-54
2024/03/22 23:13:12;;;;;;;;;;;19.20;42.60;;;;;;8355368;27;20004;-52
2024/03/22 23:17:13;;;;;;;;;;;19.20;42.60;;;;;;8355718;28;20393;-53